»·PEaware :: N444FG KSNA-KCMA

N444FG :: KSNA-KCMA

FLIGHT INFORMATION

Flight Status: Arrived
Operator: Privately registered:
United States
More flights under this callsign
Pilot: Bill F. (18685)
Aircraft: PIPER PA-28R-201 ARROW
(P28R)
More flights by this aircraft type
Origin: KSNA John Wayne-Orange Co
United States
Destination: KCMA Camarillo
United States
More flights between these airports :: More routes between these airports
Route: +
File this flight plan on PilotEdge
Remarks:
Altitude:
(Current/Filed)
2,400ft
Speed:
(Current/Filed)
0kts
Departed: 05-Dec-18 08:16 PM
Arrived: 05-Dec-18 08:52 PM
Distance/Time
Traveled:
67nm/0:35
Distance/Time
To Go:
Arrived

Flight Plot

Page will automatically refresh every two minutes.


Map Options




Map Legend


Flown Route
Filed Route
Departure Airport
Arrival Airport
Navaid (VOR, NDB)
Fix

Horizontal Profiles

Position Reports

Time Latitude Longitude Heading Altitude Ground
Speed
05-Dec-18 20:03 33.667729 -117.870474 220 59ft 0kts
05-Dec-18 20:04 33.667729 -117.870474 220 59ft 0kts
05-Dec-18 20:05 33.667963 -117.871052 305 59ft 4kts
05-Dec-18 20:06 33.668101 -117.871221 310 59ft 0kts
05-Dec-18 20:07 33.668463 -117.871434 6 59ft 11kts
05-Dec-18 20:08 33.673381 -117.867575 41 59ft 0kts
05-Dec-18 20:09 33.673381 -117.867575 41 59ft 0kts
05-Dec-18 20:10 33.673382 -117.867575 41 59ft 0kts
05-Dec-18 20:11 33.673381 -117.867575 41 59ft 0kts
05-Dec-18 20:12 33.673381 -117.867575 41 59ft 0kts
05-Dec-18 20:13 33.678639 -117.864206 27 59ft 28kts
05-Dec-18 20:14 33.679968 -117.863629 293 59ft 0kts
05-Dec-18 20:15 33.678646 -117.865077 208 59ft 47kts
05-Dec-18 20:16 33.668176 -117.888182 246 939ft 100kts
05-Dec-18 20:17 33.660811 -117.920770 249 2012ft 103kts
05-Dec-18 20:18 33.652430 -117.953581 248 2376ft 115kts
05-Dec-18 20:19 33.642066 -117.994480 267 2682ft 120kts
05-Dec-18 20:20 33.659653 -118.023250 305 3932ft 90kts
05-Dec-18 20:21 33.677224 -118.049738 301 4497ft 134kts
05-Dec-18 20:22 33.700662 -118.087868 301 4487ft 144kts
05-Dec-18 20:23 33.724458 -118.126650 302 4487ft 145kts
05-Dec-18 20:24 33.748075 -118.165748 301 4487ft 145kts
05-Dec-18 20:25 33.771995 -118.204583 308 4486ft 146kts
05-Dec-18 20:26 33.799535 -118.240312 308 4487ft 146kts
05-Dec-18 20:27 33.826679 -118.275437 308 4487ft 146kts
05-Dec-18 20:28 33.854309 -118.311147 308 4487ft 146kts
05-Dec-18 20:29 33.881661 -118.346455 308 4487ft 146kts
05-Dec-18 20:30 33.912994 -118.377441 322 4487ft 148kts
05-Dec-18 20:31 33.946900 -118.405318 322 4488ft 148kts
05-Dec-18 20:32 33.980676 -118.433048 322 4488ft 148kts
05-Dec-18 20:33 34.010632 -118.463145 303 4488ft 145kts
05-Dec-18 20:34 34.034572 -118.502309 302 4488ft 145kts
05-Dec-18 20:35 34.054085 -118.544065 288 4488ft 142kts
05-Dec-18 20:36 34.069447 -118.588181 289 4488ft 143kts
05-Dec-18 20:37 34.085307 -118.632018 289 4488ft 143kts
05-Dec-18 20:38 34.100772 -118.674676 288 4488ft 143kts
05-Dec-18 20:39 34.116321 -118.717471 288 4486ft 142kts
05-Dec-18 20:40 34.131002 -118.761727 286 4486ft 142kts
05-Dec-18 20:41 34.140310 -118.806715 275 4486ft 140kts
05-Dec-18 20:42 34.146754 -118.852344 274 4486ft 138kts
05-Dec-18 20:43 34.152916 -118.894231 275 3792ft 120kts
05-Dec-18 20:44 34.165886 -118.931346 301 3008ft 125kts
05-Dec-18 20:45 34.190079 -118.960945 307 2421ft 125kts
05-Dec-18 20:46 34.205585 -118.996939 275 1889ft 118kts
05-Dec-18 20:47 34.205530 -119.035161 263 1671ft 101kts
05-Dec-18 20:48 34.205042 -119.068668 261 1428ft 97kts
05-Dec-18 20:49 34.205064 -119.096101 260 970ft 75kts
05-Dec-18 20:50 34.209391 -119.116010 355 565ft 81kts
05-Dec-18 20:51 34.213890 -119.096489 88 75ft 36kts
05-Dec-18 20:52 34.212455 -119.095568 180 75ft 0kts
05-Dec-18 20:53 34.211934 -119.098771 272 75ft 19kts
05-Dec-18 20:54 34.213002 -119.104550 26 75ft 3kts
05-Dec-18 20:55 34.213018 -119.104530 54 75ft 0kts
05-Dec-18 20:56 34.213018 -119.104530 54 75ft 0kts
05-Dec-18 20:57 34.213018 -119.104530 54 75ft 0kts
05-Dec-18 20:58 34.213018 -119.104530 54 75ft 0kts
05-Dec-18 20:59 34.213018 -119.104530 54 75ft 0kts
05-Dec-18 21:00 34.213018 -119.104530 54 75ft 0kts
05-Dec-18 21:01 34.213018 -119.104530 54 75ft 0kts
05-Dec-18 21:02 34.213054 -119.104180 84 75ft 4kts
05-Dec-18 21:03 34.213192 -119.103975 355 75ft 0kts
05-Dec-18 21:04 34.214143 -119.089036 94 387ft 95kts
05-Dec-18 21:05 34.214427 -119.056095 100 1666ft 96kts

Navigation Log

Ident Type
Flight plan parsing failed, navigation log unavailable